Time;durP1;ratioP1;P1;durP2;ratioP2;P2;SDS_P1;SDS_P2;PMS_P1;PMS_P2;Temp;Humidity;BMP_temperature;BMP_pressure;BME280_temperature;BME280_humidity;BME280_pressure;Samples;Min_cycle;Max_cycle;Signal;HPM_P1;HPM_P2
2024/01/17 00:02:04;;;;;;;0.90;0.80;;;;;;;-143.84;67.24;45233.78;5110272;28;20942;-61
2024/01/17 00:04:32;;;;;;;0.80;0.60;;;;;;;-143.84;66.67;45212.84;5110049;28;20441;-61
2024/01/17 00:07:00;;;;;;;0.80;0.50;;;;;;;-143.84;67.11;45222.34;5110312;28;20947;-61
2024/01/17 00:09:27;;;;;;;0.80;0.60;;;;;;;-143.84;66.67;45216.63;5110048;28;20442;-61
2024/01/17 00:11:54;;;;;;;0.90;0.70;;;;;;;-143.84;66.52;45212.84;5109613;28;20555;-61
2024/01/17 00:14:21;;;;;;;0.80;0.70;;;;;;;-143.84;65.89;45212.84;5110159;28;20434;-61
2024/01/17 00:16:48;;;;;;;0.80;0.50;;;;;;;-143.84;65.75;45212.84;5110136;28;20923;-61
2024/01/17 00:19:15;;;;;;;1.00;0.90;;;;;;;-143.84;65.06;45222.34;5109899;28;20435;-61
2024/01/17 00:21:44;;;;;;;0.80;0.50;;;;;;;-143.84;64.93;45207.13;5109862;28;20503;-61
2024/01/17 00:24:11;;;;;;;0.80;0.70;;;;;;;-143.84;64.56;45224.25;5109644;28;21047;-61
2024/01/17 00:26:38;;;;;;;0.80;0.60;;;;;;;-143.84;63.83;45226.16;5109928;28;20968;-61
2024/01/17 00:29:05;;;;;;;0.80;0.50;;;;;;;-143.84;63.46;45214.72;5109658;28;20495;-61
2024/01/17 00:31:32;;;;;;;1.30;1.20;;;;;;;-143.84;62.49;45186.16;5109815;28;20478;-61
2024/01/17 00:34:00;;;;;;;1.20;1.10;;;;;;;-143.84;62.33;45241.41;5109923;28;20469;-61
2024/01/17 00:36:27;;;;;;;2.27;2.07;;;;;;;-143.84;61.69;45216.63;5109930;28;20488;-61
2024/01/17 00:38:55;;;;;;;0.80;0.50;;;;;;;-143.84;61.99;45216.63;5109862;28;20434;-61
2024/01/17 00:41:21;;;;;;;0.80;0.60;;;;;;;-143.84;61.65;45220.44;5109952;28;20504;-61
2024/01/17 00:43:48;;;;;;;0.80;0.63;;;;;;;-143.84;61.01;45212.84;5109475;28;20442;-61
2024/01/17 00:46:16;;;;;;;0.80;0.60;;;;;;;-143.84;60.75;45216.63;5109661;28;20464;-61
2024/01/17 00:48:43;;;;;;;0.80;0.50;;;;;;;-143.84;59.61;45203.31;5109699;28;20447;-61
2024/01/17 00:51:10;;;;;;;0.80;0.50;;;;;;;-143.84;59.46;45233.78;5109420;28;20474;-61
2024/01/17 00:53:38;;;;;;;0.80;0.50;;;;;;;-143.84;58.66;45218.53;5109527;28;20439;-61
2024/01/17 00:56:07;;;;;;;0.80;0.50;;;;;;;-143.84;58.61;45189.97;5109334;28;20530;-61
2024/01/17 00:58:34;;;;;;;0.80;0.57;;;;;;;-143.84;58.26;45231.88;5109457;28;20438;-61
2024/01/17 01:01:01;;;;;;;0.80;0.50;;;;;;;-143.84;57.14;45245.19;5109109;28;20455;-61
2024/01/17 01:03:28;;;;;;;0.80;0.50;;;;;;;-143.84;57.39;45216.63;5109415;28;20426;-61
2024/01/17 01:05:55;;;;;;;1.07;0.97;;;;;;;-143.84;56.40;45224.25;5108933;28;20431;-61
2024/01/17 01:08:22;;;;;;;0.80;0.50;;;;;;;-143.84;56.53;45228.06;5109560;28;20435;-61
2024/01/17 01:10:49;;;;;;;2.30;0.80;;;;;;;-143.84;55.63;45201.41;5108971;28;20487;-61
2024/01/17 01:13:18;;;;;;;0.90;0.70;;;;;;;-143.84;54.23;45176.66;5109012;28;20439;-61
2024/01/17 01:15:45;;;;;;;0.80;0.50;;;;;;;-143.84;54.52;45229.97;5108992;28;20987;-61
2024/01/17 01:18:12;;;;;;;0.90;0.77;;;;;;;-143.84;54.11;45205.22;5109108;28;20434;-61
2024/01/17 01:20:39;;;;;;;0.80;0.50;;;;;;;-143.84;52.92;45199.50;5109053;28;20468;-61
2024/01/17 01:23:06;;;;;;;0.80;0.60;;;;;;;-143.84;52.83;45209.03;5109455;28;20438;-61
2024/01/17 01:25:33;;;;;;;0.80;0.60;;;;;;;-143.84;51.98;45216.63;5109259;28;20521;-61
2024/01/17 01:28:00;;;;;;;0.80;0.50;;;;;;;-143.84;51.83;45231.88;5108893;28;20508;-61
2024/01/17 01:30:30;;;;;;;0.80;0.50;;;;;;;-143.84;51.19;45189.97;5108824;28;20439;-61
2024/01/17 01:32:57;;;;;;;0.80;0.40;;;;;;;-143.84;49.95;45222.34;5108709;28;20478;-61
2024/01/17 01:35:26;;;;;;;0.80;0.50;;;;;;;-143.84;49.98;45205.22;5109310;28;20427;-61
2024/01/17 01:37:53;;;;;;;4.50;1.07;;;;;;;-143.84;49.52;45197.59;5109051;28;20439;-61
2024/01/17 01:40:21;;;;;;;0.90;0.77;;;;;;;-143.84;48.60;45218.53;5108610;28;20430;-61
2024/01/17 01:42:48;;;;;;;1.57;1.27;;;;;;;-143.84;49.15;45184.25;5108906;28;20431;-61
2024/01/17 01:45:15;;;;;;;0.80;0.50;;;;;;;-143.84;49.34;45186.16;5109030;28;20443;-61
2024/01/17 01:47:44;;;;;;;0.83;0.67;;;;;;;-143.84;48.91;45191.88;5108798;28;21260;-61
2024/01/17 01:50:12;;;;;;;1.37;0.90;;;;;;;-143.84;49.11;45224.25;5108765;28;20500;-61
2024/01/17 01:52:42;;;;;;;0.80;0.60;;;;;;;-143.84;49.17;45279.47;5108748;28;20483;-61
2024/01/17 01:55:10;;;;;;;2.13;1.00;;;;;;;-143.84;48.72;45197.59;5108786;28;20509;-61
2024/01/17 01:57:46;;;;;;;0.90;0.70;;;;;;;-143.84;49.14;45210.94;5110671;28;20431;-61
2024/01/17 02:00:15;;;;;;;0.80;0.60;;;;;;;-143.84;49.25;45176.66;5112513;28;20450;-61
2024/01/17 02:02:43;;;;;;;0.80;0.67;;;;;;;-143.84;49.11;45220.44;5112858;28;20869;-61
2024/01/17 02:05:11;;;;;;;0.80;0.50;;;;;;;-143.84;48.68;45226.16;5112299;28;20446;-61
2024/01/17 02:07:39;;;;;;;1.23;1.10;;;;;;;-143.84;49.23;45184.25;5112388;28;20439;-61
2024/01/17 02:10:07;;;;;;;0.90;0.70;;;;;;;-143.84;49.26;45201.41;5112158;28;20924;-61
2024/01/17 02:12:34;;;;;;;1.43;1.33;;;;;;;-143.84;48.94;45224.25;5112019;28;20482;-61
2024/01/17 02:15:01;;;;;;;1.10;0.87;;;;;;;-143.84;49.55;45210.94;5111956;28;20993;-61
2024/01/17 02:17:28;;;;;;;0.80;0.50;;;;;;;-143.84;48.94;45209.03;5112378;28;20443;-61
2024/01/17 02:19:57;;;;;;;0.80;0.50;;;;;;;-143.84;49.29;45207.13;5112134;28;20435;-61
2024/01/17 02:22:24;;;;;;;0.80;0.60;;;;;;;-143.84;49.38;45209.03;5111857;28;20504;-61
2024/01/17 02:24:53;;;;;;;0.80;0.60;;;;;;;-143.84;49.54;45199.50;5111835;28;20503;-61
2024/01/17 02:27:20;;;;;;;0.80;0.40;;;;;;;-143.84;49.21;45205.22;5112141;28;20519;-61
2024/01/17 02:29:48;;;;;;;1.20;0.97;;;;;;;-143.84;49.30;45222.34;5112055;28;20435;-61
2024/01/17 02:32:16;;;;;;;0.80;0.50;;;;;;;-143.84;49.42;45188.06;5111995;28;20466;-61
2024/01/17 02:34:43;;;;;;;0.80;0.50;;;;;;;-143.84;49.22;45172.84;5111986;28;20443;-61
2024/01/17 02:37:11;;;;;;;0.80;0.60;;;;;;;-143.84;48.92;45214.72;5111850;28;20431;-61
2024/01/17 02:39:38;;;;;;;0.80;0.50;;;;;;;-143.84;48.64;45235.69;5111756;28;20770;-61
2024/01/17 02:42:07;;;;;;;1.30;1.20;;;;;;;-143.84;48.48;45220.44;5111161;28;20443;-61
2024/01/17 02:44:34;;;;;;;0.80;0.60;;;;;;;-143.84;48.75;45199.50;5111312;28;20462;-61
2024/01/17 02:47:01;;;;;;;0.80;0.60;;;;;;;-143.84;48.59;45216.63;5107997;28;21299;-61
2024/01/17 02:49:28;;;;;;;0.80;0.67;;;;;;;-143.84;48.40;45222.34;5090518;28;20440;-61
2024/01/17 02:51:56;;;;;;;0.80;0.60;;;;;;;-143.84;48.57;45210.94;5091348;28;21253;-61
2024/01/17 02:54:23;;;;;;;0.80;0.40;;;;;;;-143.84;48.52;45231.88;5091218;28;20443;-61
2024/01/17 02:56:50;;;;;;;1.73;0.97;;;;;;;-143.84;48.86;45218.53;5091138;28;20444;-61
2024/01/17 02:59:19;;;;;;;0.80;0.50;;;;;;;-143.84;48.37;45247.09;5091368;28;20446;-61
2024/01/17 03:01:46;;;;;;;0.80;0.50;;;;;;;-143.84;48.39;45237.59;5091195;28;20451;-61
2024/01/17 03:04:14;;;;;;;0.80;0.50;;;;;;;-143.84;48.07;45197.59;5091060;28;20544;-61
2024/01/17 03:06:42;;;;;;;0.90;0.77;;;;;;;-143.84;48.85;45216.63;5091085;28;20435;-61
2024/01/17 03:09:10;;;;;;;0.80;0.50;;;;;;;-143.84;49.17;45239.50;5090646;28;20520;-61
2024/01/17 03:11:37;;;;;;;0.80;0.50;;;;;;;-143.84;49.56;45210.94;5090456;28;20557;-61
2024/01/17 03:14:05;;;;;;;0.80;0.53;;;;;;;-143.84;49.57;45207.13;5090814;28;20432;-61
2024/01/17 03:16:35;;;;;;;0.80;0.53;;;;;;;-143.84;49.79;45188.06;5090950;28;20489;-61
2024/01/17 03:19:02;;;;;;;0.80;0.50;;;;;;;-143.84;50.54;45216.63;5090966;28;20444;-61
2024/01/17 03:21:30;;;;;;;0.80;0.50;;;;;;;-143.84;51.39;45245.19;5090572;28;20440;-61
2024/01/17 03:23:58;;;;;;;0.90;0.80;;;;;;;-143.84;51.85;45193.78;5090562;28;20493;-61
2024/01/17 03:26:25;;;;;;;0.80;0.57;;;;;;;-143.84;53.15;45205.22;5090824;28;20527;-61
2024/01/17 03:28:52;;;;;;;0.80;0.50;;;;;;;-143.84;53.19;45203.31;5090549;28;20498;-61
2024/01/17 03:31:19;;;;;;;0.97;0.87;;;;;;;-143.84;54.33;45193.78;5090460;28;20471;-61
2024/01/17 03:33:48;;;;;;;4.00;1.83;;;;;;;-143.84;55.29;45229.97;5090115;28;20463;-61
2024/01/17 03:36:15;;;;;;;0.80;0.50;;;;;;;-143.84;56.87;45205.22;5090457;28;20501;-61
2024/01/17 03:38:42;;;;;;;0.80;0.50;;;;;;;-143.84;57.70;45178.56;5090358;28;20452;-61
2024/01/17 03:41:09;;;;;;;1.73;0.80;;;;;;;-143.84;59.06;45197.59;5090638;28;20856;-61
2024/01/17 03:43:36;;;;;;;0.80;0.60;;;;;;;-143.84;58.87;45207.13;5090399;28;20494;-61
2024/01/17 03:46:03;;;;;;;0.80;0.60;;;;;;;-143.84;59.77;45218.53;5090344;28;20884;-61
2024/01/17 03:48:30;;;;;;;0.80;0.60;;;;;;;-143.84;60.92;45195.69;5090176;28;20437;-61
2024/01/17 03:50:59;;;;;;;0.80;0.70;;;;;;;-143.84;61.92;45197.59;5090162;28;20455;-61
2024/01/17 03:53:26;;;;;;;2.80;1.10;;;;;;;-143.84;63.11;45189.97;5090115;28;20548;-61
2024/01/17 03:55:54;;;;;;;0.80;0.60;;;;;;;-143.84;64.48;45201.41;5090164;28;20484;-61
2024/01/17 03:58:21;;;;;;;0.80;0.60;;;;;;;-143.84;65.16;45197.59;5090043;28;20526;-61
2024/01/17 04:00:48;;;;;;;0.80;0.80;;;;;;;-143.84;65.81;45209.03;5089938;28;20497;-61
2024/01/17 04:03:16;;;;;;;0.80;0.50;;;;;;;-143.84;67.22;45191.88;5089697;28;20440;-61
2024/01/17 04:05:43;;;;;;;1.00;0.83;;;;;;;-143.84;67.72;45210.94;5102103;28;20435;-61
2024/01/17 04:08:11;;;;;;;0.80;0.60;;;;;;;-143.84;68.17;45222.34;5110201;28;20960;-61
2024/01/17 04:10:39;;;;;;;1.00;0.90;;;;;;;-143.84;67.86;45201.41;5109952;28;20489;-61
2024/01/17 04:13:06;;;;;;;0.80;0.57;;;;;;;-143.84;68.40;45216.63;5110102;28;20493;-61
2024/01/17 04:15:33;;;;;;;0.83;0.60;;;;;;;-143.84;68.85;45197.59;5110340;28;20443;-61
2024/01/17 04:18:00;;;;;;;0.80;0.50;;;;;;;-143.84;69.63;45226.16;5110622;28;20458;-61
2024/01/17 04:20:27;;;;;;;0.80;0.50;;;;;;;-143.84;69.29;45205.22;5109847;28;20428;-61
2024/01/17 04:22:54;;;;;;;0.80;0.50;;;;;;;-143.84;69.84;45224.25;5110286;28;20459;-61
2024/01/17 04:25:23;;;;;;;2.27;1.47;;;;;;;-143.84;69.89;45199.50;5110251;28;20443;-61
2024/01/17 04:27:50;;;;;;;0.83;0.70;;;;;;;-143.84;70.14;45205.22;5109873;28;20444;-61
2024/01/17 04:30:17;;;;;;;0.80;0.53;;;;;;;-143.84;70.68;45233.78;5109322;28;20496;-61
2024/01/17 04:32:45;;;;;;;0.80;0.60;;;;;;;-143.84;70.23;45195.69;5101314;28;20870;-61
2024/01/17 04:35:12;;;;;;;0.80;0.60;;;;;;;-143.84;70.03;45220.44;5089258;28;20436;-61
2024/01/17 04:37:40;;;;;;;0.80;0.60;;;;;;;-143.84;70.30;45218.53;5101219;28;20477;-61
2024/01/17 04:40:08;;;;;;;1.37;1.13;;;;;;;-143.84;70.38;45193.78;5109697;28;20446;-61
2024/01/17 04:42:37;;;;;;;1.03;0.93;;;;;;;-143.84;71.37;45207.13;5109588;28;20439;-61
2024/01/17 04:45:05;;;;;;;0.80;0.50;;;;;;;-143.84;70.90;45220.44;5109681;28;20528;-61
2024/01/17 04:47:32;;;;;;;1.20;0.60;;;;;;;-143.84;71.48;45231.88;5110078;28;20496;-61
2024/01/17 04:49:59;;;;;;;0.80;0.60;;;;;;;-143.84;71.99;45224.25;5096113;28;20505;-61
2024/01/17 04:52:26;;;;;;;0.80;0.50;;;;;;;-143.84;72.93;45207.13;5089043;28;21368;-61
2024/01/17 04:54:54;;;;;;;0.83;0.60;;;;;;;-143.84;72.78;45201.41;5089134;28;20450;-61
2024/01/17 04:57:21;;;;;;;0.87;0.70;;;;;;;-143.84;73.06;45207.13;5089006;28;20886;-61
2024/01/17 04:59:49;;;;;;;0.80;0.50;;;;;;;-143.84;72.73;45209.03;5088960;28;20497;-61
2024/01/17 05:02:16;;;;;;;0.80;0.50;;;;;;;-143.84;72.82;45220.44;5089033;28;20432;-61
2024/01/17 05:04:44;;;;;;;1.17;1.07;;;;;;;-143.84;72.65;45197.59;5088824;28;20497;-61
2024/01/17 05:07:11;;;;;;;0.80;0.50;;;;;;;-143.84;72.78;45239.50;5089070;28;20435;-61
2024/01/17 05:09:39;;;;;;;0.80;0.47;;;;;;;-143.84;74.24;45214.72;5088877;28;20872;-61
2024/01/17 05:12:07;;;;;;;0.80;0.60;;;;;;;-143.84;74.30;45207.13;5088813;28;21072;-61
2024/01/17 05:14:34;;;;;;;0.80;0.60;;;;;;;-143.84;73.90;45201.41;5088795;28;20971;-61
2024/01/17 05:17:02;;;;;;;0.80;0.50;;;;;;;-143.84;74.25;45209.03;5088822;28;20964;-61
2024/01/17 05:19:30;;;;;;;0.80;0.60;;;;;;;-143.84;74.34;45216.63;5088912;28;20494;-61
2024/01/17 05:21:57;;;;;;;0.80;0.50;;;;;;;-143.84;74.38;45233.78;5089012;28;20535;-61
2024/01/17 05:24:24;;;;;;;0.80;0.53;;;;;;;-143.84;73.78;45212.84;5088670;28;20458;-61
2024/01/17 05:26:51;;;;;;;0.80;0.53;;;;;;;-143.84;73.87;45243.31;5104913;28;20437;-61
2024/01/17 05:29:18;;;;;;;0.90;0.80;;;;;;;-143.84;73.37;45203.31;5109076;28;20862;-61
2024/01/17 05:31:45;;;;;;;1.30;1.20;;;;;;;-143.84;73.28;45199.50;5107858;28;20447;-61
2024/01/17 05:34:15;;;;;;;0.90;0.80;;;;;;;-143.84;73.33;45210.94;5112900;28;20475;-61
2024/01/17 05:36:43;;;;;;;0.80;0.60;;;;;;;-143.84;73.45;45220.44;5113095;28;20487;-61
2024/01/17 05:39:12;;;;;;;1.13;1.03;;;;;;;-143.84;73.70;45216.63;5100372;28;20440;-61
2024/01/17 05:41:39;;;;;;;0.80;0.50;;;;;;;-143.84;73.47;45220.44;5092826;28;20564;-61
2024/01/17 05:44:06;;;;;;;0.90;0.77;;;;;;;-143.84;73.64;45218.53;5093123;28;20436;-61
2024/01/17 05:46:33;;;;;;;0.83;0.67;;;;;;;-143.84;73.38;45186.16;5093058;28;20485;-61
2024/01/17 05:49:01;;;;;;;0.80;0.57;;;;;;;-143.84;73.29;45197.59;5092703;28;20538;-61
2024/01/17 05:51:29;;;;;;;0.97;0.87;;;;;;;-143.84;73.09;45209.03;5092118;28;20497;-61
2024/01/17 05:53:58;;;;;;;1.20;1.00;;;;;;;-143.84;71.38;45189.97;5091771;28;20483;-61
2024/01/17 05:56:25;;;;;;;0.80;0.63;;;;;;;-143.84;71.97;45207.13;5091810;28;20439;-61
2024/01/17 05:58:52;;;;;;;0.93;0.83;;;;;;;-143.84;71.53;45241.41;5091511;28;20489;-61
2024/01/17 06:01:19;;;;;;;0.80;0.50;;;;;;;-143.84;71.71;45205.22;5091351;28;20444;-61
2024/01/17 06:03:46;;;;;;;3.53;1.23;;;;;;;-143.84;71.31;45188.06;5092305;28;20506;-61
2024/01/17 06:06:13;;;;;;;1.77;1.67;;;;;;;-143.84;71.40;45226.16;5092503;28;20428;-61
2024/01/17 06:08:42;;;;;;;1.10;1.00;;;;;;;-143.84;71.08;45188.06;5092113;28;20439;-61
2024/01/17 06:11:09;;;;;;;0.90;0.80;;;;;;;-143.84;70.53;45207.13;5092010;28;20511;-61
2024/01/17 06:13:36;;;;;;;1.17;0.80;;;;;;;-143.84;70.02;45210.94;5091937;28;20483;-61
2024/01/17 06:16:03;;;;;;;0.80;0.70;;;;;;;-143.84;68.48;45199.50;5091957;28;20964;-61
2024/01/17 06:18:31;;;;;;;0.83;0.70;;;;;;;-143.84;66.58;45226.16;5092016;28;20450;-61
2024/01/17 06:20:58;;;;;;;3.33;2.53;;;;;;;-143.84;66.75;45209.03;5092225;28;20451;-61
2024/01/17 06:23:25;;;;;;;0.80;0.57;;;;;;;-143.84;65.28;45214.72;5091712;28;20431;-61
2024/01/17 06:25:53;;;;;;;0.90;0.70;;;;;;;-143.84;63.57;45218.53;5092063;28;20951;-61
2024/01/17 06:28:20;;;;;;;0.93;0.80;;;;;;;-143.84;62.50;45249.00;5091850;28;20505;-61
2024/01/17 06:30:47;;;;;;;1.00;0.90;;;;;;;-143.84;61.81;45216.63;5091626;28;20439;-61
2024/01/17 06:33:15;;;;;;;0.90;0.67;;;;;;;-143.84;61.86;45228.06;5091739;28;20560;-61
2024/01/17 06:35:42;;;;;;;1.20;1.07;;;;;;;-143.84;60.50;45210.94;5091682;28;20458;-61
2024/01/17 06:38:09;;;;;;;0.80;0.50;;;;;;;-143.84;58.45;45195.69;5091648;28;20448;-61
2024/01/17 06:40:36;;;;;;;0.80;0.60;;;;;;;-143.84;57.64;45191.88;5091663;28;20435;-61
2024/01/17 06:43:05;;;;;;;2.20;0.80;;;;;;;-143.84;55.75;45209.03;5091021;28;20439;-61
2024/01/17 06:45:33;;;;;;;0.80;0.60;;;;;;;-143.84;53.64;45197.59;5091349;28;20444;-61
2024/01/17 06:48:02;;;;;;;1.07;0.97;;;;;;;-143.84;51.69;45201.41;5091419;28;20440;-61
2024/01/17 06:50:29;;;;;;;0.80;0.40;;;;;;;-143.84;49.93;45178.56;5091194;28;20471;-61
2024/01/17 06:52:56;;;;;;;0.80;0.60;;;;;;;-143.84;49.03;45178.56;5091096;28;20476;-61
2024/01/17 06:55:23;;;;;;;0.90;0.70;;;;;;;-143.84;48.03;45207.13;5091127;28;20444;-61
2024/01/17 06:57:51;;;;;;;0.80;0.50;;;;;;;-143.84;47.10;45203.31;5091300;28;20442;-61
2024/01/17 07:00:20;;;;;;;0.80;0.60;;;;;;;-143.84;46.45;45174.75;5091014;28;21187;-61
2024/01/17 07:02:47;;;;;;;0.80;0.40;;;;;;;-143.84;46.26;45195.69;5091004;28;20939;-61
2024/01/17 07:05:14;;;;;;;1.00;0.80;;;;;;;-143.84;45.31;45172.84;5091214;28;20524;-61
2024/01/17 07:07:41;;;;;;;0.80;0.60;;;;;;;-143.84;45.57;45169.03;5091115;28;20461;-61
2024/01/17 07:10:09;;;;;;;0.80;0.50;;;;;;;-143.84;45.05;45207.13;5090557;28;20453;-61
2024/01/17 07:12:36;;;;;;;0.80;0.57;;;;;;;-143.84;45.16;45167.13;5090908;28;20955;-61
2024/01/17 07:15:04;;;;;;;1.47;1.00;;;;;;;-143.84;45.20;45189.97;5090819;28;20481;-62
2024/01/17 07:17:32;;;;;;;0.80;0.70;;;;;;;-143.84;44.73;45193.78;5090781;28;20444;-61
2024/01/17 07:19:59;;;;;;;0.80;0.50;;;;;;;-143.84;43.73;45169.03;5091067;28;20441;-62
2024/01/17 07:22:27;;;;;;;0.80;0.50;;;;;;;-143.84;43.70;45201.41;5091030;28;20541;-61
2024/01/17 07:24:54;;;;;;;0.80;0.60;;;;;;;-143.84;43.90;45167.13;5090726;28;20428;-61
2024/01/17 07:27:21;;;;;;;0.80;0.53;;;;;;;-143.84;43.26;45197.59;5090978;28;20434;-61
2024/01/17 07:29:48;;;;;;;0.80;0.50;;;;;;;-143.84;43.06;45178.56;5090554;28;20434;-62
2024/01/17 07:32:15;;;;;;;0.80;0.50;;;;;;;-143.84;42.13;45189.97;5090866;28;21218;-62
2024/01/17 07:34:44;;;;;;;0.80;0.50;;;;;;;-143.84;42.58;45189.97;5090768;28;21405;-61
2024/01/17 07:37:11;;;;;;;1.10;1.00;;;;;;;-143.84;42.19;45176.66;5090479;28;20444;-62
2024/01/17 07:39:38;;;;;;;0.80;0.40;;;;;;;-143.84;42.36;45148.09;5090449;28;20443;-62
2024/01/17 07:42:05;;;;;;;0.90;0.80;;;;;;;-143.84;41.69;45172.84;5090188;28;20440;-62
2024/01/17 07:44:33;;;;;;;2.50;1.13;;;;;;;-143.84;42.20;45151.91;5090393;28;20444;-62
2024/01/17 07:47:00;;;;;;;0.80;0.40;;;;;;;-143.84;41.71;45153.81;5090351;28;20447;-62
2024/01/17 07:49:27;;;;;;;1.00;0.77;;;;;;;-143.84;42.42;45189.97;5090403;28;20916;-62
2024/01/17 07:51:56;;;;;;;0.80;0.50;;;;;;;-143.84;41.78;45247.09;5090362;28;20968;-62
2024/01/17 07:54:23;;;;;;;0.80;0.60;;;;;;;-143.84;41.51;45178.56;5094321;28;20486;-62
2024/01/17 07:56:51;;;;;;;1.10;1.00;;;;;;;-143.84;41.97;45167.13;5110471;28;20438;-62
2024/01/17 07:59:18;;;;;;;2.00;1.03;;;;;;;-143.84;42.94;45150.00;5110193;28;20447;-62
2024/01/17 08:01:45;;;;;;;0.80;0.50;;;;;;;-143.84;42.98;45184.25;5110477;28;20439;-62
2024/01/17 08:04:12;;;;;;;0.90;0.80;;;;;;;-143.84;43.49;45140.47;5110463;28;20811;-62
2024/01/17 08:06:39;;;;;;;3.47;2.03;;;;;;;-143.84;44.06;45165.22;5110320;28;20431;-62
2024/01/17 08:09:20;;;;;;;0.80;0.40;;;;;;;-143.84;43.35;45144.28;5110050;28;20465;-62
2024/01/17 08:11:48;;;;;;;1.07;0.93;;;;;;;-143.84;44.33;45146.19;5110124;28;20901;-62
2024/01/17 08:14:15;;;;;;;2.93;2.53;;;;;;;-143.84;44.06;45123.34;5110345;28;20593;-62
2024/01/17 08:16:42;;;;;;;1.00;0.87;;;;;;;-143.84;43.55;45125.22;5110024;28;20427;-61
2024/01/17 08:19:10;;;;;;;2.50;1.13;;;;;;;-143.84;41.85;45155.69;5095347;28;20455;-62
2024/01/17 08:21:37;;;;;;;1.20;1.10;;;;;;;-143.84;42.14;45178.56;5109969;28;21215;-62
2024/01/17 08:24:05;;;;;;;0.80;0.50;;;;;;;-143.84;41.38;45134.75;5097069;28;20446;-62
2024/01/17 08:26:34;;;;;;;0.80;0.50;;;;;;;-143.84;41.65;45163.31;5096052;28;20460;-62
2024/01/17 08:29:01;;;;;;;1.03;0.93;;;;;;;-143.84;42.51;45127.13;5100507;28;20454;-62
2024/01/17 08:31:28;;;;;;;0.80;0.50;;;;;;;-143.84;41.61;45136.66;5101050;28;20447;-61
2024/01/17 08:33:56;;;;;;;1.13;1.03;;;;;;;-143.84;41.96;45136.66;5101383;28;20478;-62
2024/01/17 08:36:23;;;;;;;0.90;0.70;;;;;;;-143.84;41.89;45140.47;5100176;28;20444;-61
2024/01/17 08:38:51;;;;;;;0.90;0.60;;;;;;;-143.84;42.44;45161.41;5089156;28;20432;-62
2024/01/17 08:41:19;;;;;;;1.40;1.17;;;;;;;-143.84;42.88;45142.38;5104266;28;20447;-62
2024/01/17 08:43:48;;;;;;;0.90;0.80;;;;;;;-143.84;43.51;45146.19;5109456;28;20447;-62
2024/01/17 08:46:15;;;;;;;0.80;0.60;;;;;;;-143.84;44.41;45144.28;5108892;28;20451;-62
2024/01/17 08:48:43;;;;;;;0.80;0.60;;;;;;;-143.84;45.13;45150.00;5109257;28;20431;-62
2024/01/17 08:51:11;;;;;;;0.80;0.50;;;;;;;-143.84;45.22;45153.81;5109681;28;20427;-62
2024/01/17 08:53:38;;;;;;;0.80;0.40;;;;;;;-143.84;45.12;45153.81;5109276;28;20505;-62
2024/01/17 08:56:06;;;;;;;1.37;0.60;;;;;;;-143.84;45.39;45142.38;5091014;28;20458;-62
2024/01/17 08:58:33;;;;;;;0.80;0.50;;;;;;;-143.84;45.64;45146.19;5100578;28;20803;-62
2024/01/17 09:01:02;;;;;;;0.80;0.50;;;;;;;-143.84;45.81;45136.66;5088391;28;20427;-62
2024/01/17 09:03:32;;;;;;;0.80;0.47;;;;;;;-143.84;45.75;45170.94;5097646;28;20446;-62
2024/01/17 09:05:59;;;;;;;0.80;0.60;;;;;;;-143.84;45.98;45127.13;5109070;28;20431;-62
2024/01/17 09:08:26;;;;;;;0.90;0.70;;;;;;;-143.84;44.21;45144.28;5100932;28;20439;-62
2024/01/17 09:10:53;;;;;;;1.33;0.70;;;;;;;-143.84;45.01;45140.47;5089285;28;20487;-62
2024/01/17 09:13:20;;;;;;;0.80;0.47;;;;;;;-143.84;44.70;45142.38;5087823;28;20451;-62
2024/01/17 09:15:47;;;;;;;3.63;1.00;;;;;;;-143.84;44.96;45129.03;5088441;28;20444;-62
2024/01/17 09:18:17;;;;;;;1.00;0.73;;;;;;;-143.84;45.87;45150.00;5089275;28;20825;-62
2024/01/17 09:20:45;;;;;;;1.00;0.73;;;;;;;-143.84;45.72;45151.91;5089245;28;20428;-62
2024/01/17 09:23:13;;;;;;;1.20;0.90;;;;;;;-143.84;45.89;45127.13;5089331;28;20435;-62
2024/01/17 09:25:40;;;;;;;1.47;0.87;;;;;;;-143.84;46.07;45144.28;5089107;28;20558;-62
2024/01/17 09:28:09;;;;;;;0.80;0.50;;;;;;;-143.84;46.17;45134.75;5088949;28;20435;-62
2024/01/17 09:30:36;;;;;;;2.90;1.73;;;;;;;-143.84;45.63;45117.63;5089973;28;20816;-61
2024/01/17 09:33:03;;;;;;;1.00;0.90;;;;;;;-143.84;45.95;45140.47;5089443;28;20443;-62
2024/01/17 09:35:35;;;;;;;0.90;0.60;;;;;;;-143.84;46.08;45140.47;5088779;28;20532;-62
2024/01/17 09:38:02;;;;;;;2.97;1.90;;;;;;;-143.84;46.28;45146.19;5088816;28;20534;-62
2024/01/17 09:40:29;;;;;;;0.80;0.60;;;;;;;-143.84;46.45;45148.09;5088678;28;20447;-62
2024/01/17 09:42:58;;;;;;;2.13;1.43;;;;;;;-143.84;46.26;45136.66;5098117;28;20458;-62
2024/01/17 09:45:31;;;;;;;1.37;0.70;;;;;;;-143.84;46.71;45117.63;5094308;28;20525;-62
2024/01/17 09:47:58;;;;;;;1.10;1.00;;;;;;;-143.84;46.47;45144.28;5090308;28;20432;-62
2024/01/17 09:50:25;;;;;;;4.17;0.90;;;;;;;-143.84;47.72;45121.44;5109014;28;20439;-62
2024/01/17 09:52:54;;;;;;;1.70;1.60;;;;;;;-143.84;47.00;45140.47;5108361;28;20455;-62
2024/01/17 09:55:23;;;;;;;5.30;0.90;;;;;;;-143.84;47.73;45148.09;5108903;28;20553;-61
2024/01/17 09:57:56;;;;;;;1.67;1.07;;;;;;;-143.84;49.09;45136.66;5109143;28;20437;-61
2024/01/17 10:00:24;;;;;;;3.27;0.90;;;;;;;-143.84;50.10;45146.19;5104794;28;20432;-61
2024/01/17 10:02:54;;;;;;;0.80;0.53;;;;;;;-143.84;51.63;45121.44;5088388;28;20436;-61
2024/01/17 10:05:22;;;;;;;1.10;0.90;;;;;;;-143.84;52.57;45138.56;5106312;28;20450;-62
2024/01/17 10:07:49;;;;;;;0.90;0.60;;;;;;;-143.84;51.74;45150.00;5108605;28;20824;-62
2024/01/17 10:10:21;;;;;;;0.80;0.60;;;;;;;-143.84;52.22;45155.69;5108751;28;20486;-61
2024/01/17 10:12:48;;;;;;;3.47;1.77;;;;;;;-143.84;52.89;45153.81;5108687;28;20515;-62
2024/01/17 10:15:16;;;;;;;0.80;0.60;;;;;;;-143.84;53.55;45140.47;5108073;28;20482;-61
2024/01/17 10:17:43;;;;;;;0.80;0.50;;;;;;;-143.84;53.24;45129.03;5108837;28;20428;-62
2024/01/17 10:20:12;;;;;;;0.90;0.73;;;;;;;-143.84;51.96;45110.00;5112103;28;20446;-62
2024/01/17 10:22:41;;;;;;;0.80;0.50;;;;;;;-143.84;52.04;45142.38;5112046;28;20441;-62
2024/01/17 10:25:11;;;;;;;0.80;0.40;;;;;;;-143.84;50.40;45108.09;5112090;28;20449;-62
2024/01/17 10:27:39;;;;;;;2.07;1.13;;;;;;;-143.84;50.84;45144.28;5111930;28;20439;-62
2024/01/17 10:30:10;;;;;;;0.97;0.87;;;;;;;-143.84;50.22;45136.66;5111533;28;20502;-62
2024/01/17 10:32:38;;;;;;;0.80;0.60;;;;;;;-143.84;51.09;45140.47;5111859;28;20442;-62
2024/01/17 10:35:07;;;;;;;0.80;0.50;;;;;;;-143.84;51.91;45150.00;5095563;28;20478;-62
2024/01/17 10:37:36;;;;;;;0.80;0.60;;;;;;;-143.84;53.22;45150.00;5091269;28;20499;-62
2024/01/17 10:40:13;;;;;;;1.00;0.60;;;;;;;-143.84;54.89;45130.94;5091483;28;20851;-62
2024/01/17 10:42:42;;;;;;;1.03;0.80;;;;;;;-143.84;54.06;45151.91;5091541;28;20443;-61
2024/01/17 10:45:19;;;;;;;0.97;0.80;;;;;;;-143.84;53.64;45104.28;5090792;28;20447;-61
2024/01/17 10:47:46;;;;;;;1.73;1.40;;;;;;;-143.84;54.24;45138.56;5091009;28;20486;-62
2024/01/17 10:50:13;;;;;;;0.80;0.40;;;;;;;-143.84;54.93;45129.03;5091108;28;20497;-60
2024/01/17 10:52:42;;;;;;;0.90;0.60;;;;;;;-143.84;55.00;45136.66;5090913;28;20447;-60
2024/01/17 10:55:13;;;;;;;0.80;0.60;;;;;;;-143.84;55.67;45150.00;5090855;28;20479;-60
2024/01/17 10:57:43;;;;;;;1.97;1.13;;;;;;;-143.84;56.76;45157.59;5091266;28;20440;-60
2024/01/17 11:00:16;;;;;;;0.80;0.50;;;;;;;-143.84;57.48;45130.94;5090891;28;20440;-61
2024/01/17 11:02:44;;;;;;;1.17;0.80;;;;;;;-143.84;57.95;45129.03;5090708;28;20482;-61
2024/01/17 11:05:15;;;;;;;1.10;0.70;;;;;;;-143.84;58.48;45148.09;5107642;28;20825;-61
2024/01/17 11:07:42;;;;;;;2.40;0.97;;;;;;;-143.84;59.81;45142.38;5111230;28;20813;-61
2024/01/17 11:10:10;;;;;;;1.43;0.63;;;;;;;-143.84;59.67;45125.22;5110727;28;20446;-61
2024/01/17 11:12:38;;;;;;;0.80;0.50;;;;;;;-143.84;58.27;45174.75;5110950;28;20443;-62
2024/01/17 11:15:08;;;;;;;1.20;1.03;;;;;;;-143.84;57.52;45117.63;5110679;28;20506;-62
2024/01/17 11:17:36;;;;;;;0.80;0.50;;;;;;;-143.84;58.38;45167.13;5110990;28;20530;-61
2024/01/17 11:20:08;;;;;;;0.80;0.60;;;;;;;-143.84;61.09;45134.75;5104665;28;20545;-61